sensor_id;sensor_type;location;lat;lon;timestamp;P1;durP1;ratioP1;P2;durP2;ratioP2
76155;SDS011;64906;51.290;7.348;2023-09-08T00:00:30;8.27;;;4.87;;
76155;SDS011;64906;51.290;7.348;2023-09-08T00:02:55;7.70;;;4.27;;
76155;SDS011;64906;51.290;7.348;2023-09-08T00:05:21;7.70;;;4.80;;
76155;SDS011;64906;51.290;7.348;2023-09-08T00:07:46;8.10;;;4.30;;
76155;SDS011;64906;51.290;7.348;2023-09-08T00:10:11;8.33;;;4.57;;
76155;SDS011;64906;51.290;7.348;2023-09-08T00:12:37;8.57;;;4.72;;
76155;SDS011;64906;51.290;7.348;2023-09-08T00:15:02;7.10;;;4.43;;
76155;SDS011;64906;51.290;7.348;2023-09-08T00:17:28;8.35;;;5.00;;
76155;SDS011;64906;51.290;7.348;2023-09-08T00:19:53;8.07;;;4.33;;
76155;SDS011;64906;51.290;7.348;2023-09-08T00:22:19;8.93;;;4.73;;
76155;SDS011;64906;51.290;7.348;2023-09-08T00:24:44;8.60;;;4.73;;
76155;SDS011;64906;51.290;7.348;2023-09-08T00:27:09;7.47;;;5.00;;
76155;SDS011;64906;51.290;7.348;2023-09-08T00:29:35;7.00;;;4.30;;
76155;SDS011;64906;51.290;7.348;2023-09-08T00:32:00;7.27;;;4.40;;
76155;SDS011;64906;51.290;7.348;2023-09-08T00:34:25;7.70;;;4.73;;
76155;SDS011;64906;51.290;7.348;2023-09-08T00:36:50;8.30;;;4.83;;
76155;SDS011;64906;51.290;7.348;2023-09-08T00:39:16;8.57;;;4.50;;
76155;SDS011;64906;51.290;7.348;2023-09-08T00:41:41;9.00;;;4.73;;
76155;SDS011;64906;51.290;7.348;2023-09-08T00:44:06;7.90;;;4.67;;
76155;SDS011;64906;51.290;7.348;2023-09-08T00:46:33;7.90;;;4.63;;
76155;SDS011;64906;51.290;7.348;2023-09-08T00:48:59;8.93;;;4.43;;
76155;SDS011;64906;51.290;7.348;2023-09-08T00:51:25;8.50;;;4.80;;
76155;SDS011;64906;51.290;7.348;2023-09-08T00:53:51;8.27;;;4.65;;
76155;SDS011;64906;51.290;7.348;2023-09-08T00:56:16;8.70;;;5.13;;
76155;SDS011;64906;51.290;7.348;2023-09-08T00:58:42;12.13;;;4.60;;
76155;SDS011;64906;51.290;7.348;2023-09-08T01:01:08;7.20;;;4.35;;
76155;SDS011;64906;51.290;7.348;2023-09-08T01:03:33;7.63;;;4.50;;
76155;SDS011;64906;51.290;7.348;2023-09-08T01:05:58;8.00;;;4.80;;
76155;SDS011;64906;51.290;7.348;2023-09-08T01:08:25;6.97;;;4.60;;
76155;SDS011;64906;51.290;7.348;2023-09-08T01:10:51;7.25;;;4.15;;
76155;SDS011;64906;51.290;7.348;2023-09-08T01:13:16;11.43;;;5.03;;
76155;SDS011;64906;51.290;7.348;2023-09-08T01:15:42;7.43;;;4.40;;
76155;SDS011;64906;51.290;7.348;2023-09-08T01:18:07;7.73;;;4.73;;
76155;SDS011;64906;51.290;7.348;2023-09-08T01:20:35;8.60;;;4.70;;
76155;SDS011;64906;51.290;7.348;2023-09-08T01:25:55;7.30;;;4.63;;
76155;SDS011;64906;51.290;7.348;2023-09-08T01:28:27;6.97;;;4.47;;
76155;SDS011;64906;51.290;7.348;2023-09-08T01:30:54;7.32;;;4.50;;
76155;SDS011;64906;51.290;7.348;2023-09-08T01:33:21;9.20;;;4.47;;
76155;SDS011;64906;51.290;7.348;2023-09-08T01:35:47;9.70;;;4.80;;
76155;SDS011;64906;51.290;7.348;2023-09-08T01:38:12;10.25;;;5.10;;
76155;SDS011;64906;51.290;7.348;2023-09-08T01:40:37;9.90;;;5.10;;
76155;SDS011;64906;51.290;7.348;2023-09-08T01:43:03;6.97;;;4.60;;
76155;SDS011;64906;51.290;7.348;2023-09-08T01:45:28;9.77;;;5.13;;
76155;SDS011;64906;51.290;7.348;2023-09-08T01:47:53;8.63;;;4.77;;
76155;SDS011;64906;51.290;7.348;2023-09-08T01:50:19;7.60;;;4.70;;
76155;SDS011;64906;51.290;7.348;2023-09-08T01:52:47;7.05;;;4.75;;
76155;SDS011;64906;51.290;7.348;2023-09-08T01:55:13;10.50;;;4.88;;
76155;SDS011;64906;51.290;7.348;2023-09-08T01:57:38;7.43;;;4.70;;
76155;SDS011;64906;51.290;7.348;2023-09-08T02:00:03;9.50;;;5.00;;
76155;SDS011;64906;51.290;7.348;2023-09-08T02:02:30;7.45;;;4.70;;
76155;SDS011;64906;51.290;7.348;2023-09-08T02:04:55;9.60;;;4.63;;
76155;SDS011;64906;51.290;7.348;2023-09-08T02:07:20;7.90;;;4.40;;
76155;SDS011;64906;51.290;7.348;2023-09-08T02:09:46;9.30;;;4.93;;
76155;SDS011;64906;51.290;7.348;2023-09-08T02:12:11;7.50;;;4.67;;
76155;SDS011;64906;51.290;7.348;2023-09-08T02:14:36;7.30;;;4.83;;
76155;SDS011;64906;51.290;7.348;2023-09-08T02:17:02;7.55;;;4.82;;
76155;SDS011;64906;51.290;7.348;2023-09-08T02:19:28;10.13;;;5.00;;
76155;SDS011;64906;51.290;7.348;2023-09-08T02:21:53;7.45;;;4.30;;
76155;SDS011;64906;51.290;7.348;2023-09-08T02:24:19;8.53;;;4.90;;
76155;SDS011;64906;51.290;7.348;2023-09-08T02:26:44;8.50;;;4.53;;
76155;SDS011;64906;51.290;7.348;2023-09-08T02:29:09;7.63;;;4.57;;
76155;SDS011;64906;51.290;7.348;2023-09-08T02:31:34;8.90;;;4.80;;
76155;SDS011;64906;51.290;7.348;2023-09-08T02:34:00;7.50;;;4.70;;
76155;SDS011;64906;51.290;7.348;2023-09-08T02:36:25;7.73;;;4.47;;
76155;SDS011;64906;51.290;7.348;2023-09-08T02:38:54;7.50;;;4.53;;
76155;SDS011;64906;51.290;7.348;2023-09-08T02:41:20;8.23;;;4.65;;
76155;SDS011;64906;51.290;7.348;2023-09-08T02:43:47;10.30;;;4.78;;
76155;SDS011;64906;51.290;7.348;2023-09-08T02:46:12;7.15;;;4.45;;
76155;SDS011;64906;51.290;7.348;2023-09-08T02:48:38;9.73;;;4.93;;
76155;SDS011;64906;51.290;7.348;2023-09-08T02:51:04;8.52;;;4.95;;
76155;SDS011;64906;51.290;7.348;2023-09-08T02:53:30;6.78;;;4.45;;
76155;SDS011;64906;51.290;7.348;2023-09-08T02:55:56;8.02;;;4.47;;
76155;SDS011;64906;51.290;7.348;2023-09-08T02:58:22;9.05;;;4.90;;
76155;SDS011;64906;51.290;7.348;2023-09-08T03:00:47;8.68;;;4.53;;
76155;SDS011;64906;51.290;7.348;2023-09-08T03:05:40;8.35;;;4.88;;
76155;SDS011;64906;51.290;7.348;2023-09-08T03:08:05;7.03;;;4.43;;
76155;SDS011;64906;51.290;7.348;2023-09-08T03:10:30;8.18;;;4.43;;
76155;SDS011;64906;51.290;7.348;2023-09-08T03:12:59;8.93;;;4.30;;
76155;SDS011;64906;51.290;7.348;2023-09-08T03:15:25;7.05;;;4.47;;
76155;SDS011;64906;51.290;7.348;2023-09-08T03:17:53;10.52;;;4.45;;
76155;SDS011;64906;51.290;7.348;2023-09-08T03:20:23;8.57;;;4.38;;
76155;SDS011;64906;51.290;7.348;2023-09-08T03:22:49;6.97;;;4.55;;
76155;SDS011;64906;51.290;7.348;2023-09-08T03:25:14;8.23;;;4.47;;
76155;SDS011;64906;51.290;7.348;2023-09-08T03:27:40;8.57;;;4.38;;
76155;SDS011;64906;51.290;7.348;2023-09-08T03:30:05;7.73;;;4.83;;
76155;SDS011;64906;51.290;7.348;2023-09-08T03:32:31;7.47;;;4.32;;
76155;SDS011;64906;51.290;7.348;2023-09-08T03:34:56;7.32;;;4.40;;
76155;SDS011;64906;51.290;7.348;2023-09-08T03:37:22;7.63;;;4.33;;
76155;SDS011;64906;51.290;7.348;2023-09-08T03:39:47;7.47;;;4.30;;
76155;SDS011;64906;51.290;7.348;2023-09-08T03:42:12;6.30;;;4.20;;
76155;SDS011;64906;51.290;7.348;2023-09-08T03:44:38;6.68;;;4.35;;
76155;SDS011;64906;51.290;7.348;2023-09-08T03:47:03;6.57;;;4.13;;
76155;SDS011;64906;51.290;7.348;2023-09-08T03:49:28;6.77;;;4.50;;
76155;SDS011;64906;51.290;7.348;2023-09-08T03:51:54;6.60;;;4.27;;
76155;SDS011;64906;51.290;7.348;2023-09-08T03:54:19;8.30;;;4.40;;
76155;SDS011;64906;51.290;7.348;2023-09-08T03:56:44;6.63;;;4.00;;
76155;SDS011;64906;51.290;7.348;2023-09-08T03:59:09;8.33;;;4.73;;
76155;SDS011;64906;51.290;7.348;2023-09-08T04:01:35;8.63;;;4.30;;
76155;SDS011;64906;51.290;7.348;2023-09-08T04:04:00;7.18;;;4.63;;
76155;SDS011;64906;51.290;7.348;2023-09-08T04:06:26;6.87;;;4.23;;
76155;SDS011;64906;51.290;7.348;2023-09-08T04:08:53;8.98;;;4.57;;
76155;SDS011;64906;51.290;7.348;2023-09-08T04:11:18;7.37;;;4.37;;
76155;SDS011;64906;51.290;7.348;2023-09-08T04:13:43;9.07;;;4.80;;
76155;SDS011;64906;51.290;7.348;2023-09-08T04:16:09;7.57;;;3.93;;
76155;SDS011;64906;51.290;7.348;2023-09-08T04:18:34;6.70;;;4.40;;
76155;SDS011;64906;51.290;7.348;2023-09-08T04:20:59;7.70;;;3.97;;
76155;SDS011;64906;51.290;7.348;2023-09-08T04:23:24;7.43;;;4.17;;
76155;SDS011;64906;51.290;7.348;2023-09-08T04:25:50;7.70;;;4.13;;
76155;SDS011;64906;51.290;7.348;2023-09-08T04:28:15;8.10;;;4.63;;
76155;SDS011;64906;51.290;7.348;2023-09-08T04:30:40;9.23;;;4.63;;
76155;SDS011;64906;51.290;7.348;2023-09-08T04:33:05;8.60;;;4.47;;
76155;SDS011;64906;51.290;7.348;2023-09-08T04:35:31;7.73;;;4.67;;
76155;SDS011;64906;51.290;7.348;2023-09-08T04:37:56;8.55;;;4.25;;
76155;SDS011;64906;51.290;7.348;2023-09-08T04:40:22;6.87;;;4.40;;
76155;SDS011;64906;51.290;7.348;2023-09-08T04:42:47;8.03;;;4.80;;
76155;SDS011;64906;51.290;7.348;2023-09-08T04:45:12;7.53;;;4.17;;
76155;SDS011;64906;51.290;7.348;2023-09-08T04:47:38;7.05;;;4.45;;
76155;SDS011;64906;51.290;7.348;2023-09-08T04:50:04;9.47;;;4.63;;
76155;SDS011;64906;51.290;7.348;2023-09-08T04:52:29;9.55;;;4.35;;
76155;SDS011;64906;51.290;7.348;2023-09-08T04:54:55;9.03;;;4.53;;
76155;SDS011;64906;51.290;7.348;2023-09-08T04:57:20;7.20;;;3.90;;
76155;SDS011;64906;51.290;7.348;2023-09-08T04:59:45;7.57;;;4.33;;
76155;SDS011;64906;51.290;7.348;2023-09-08T05:02:11;7.47;;;4.63;;
76155;SDS011;64906;51.290;7.348;2023-09-08T05:04:36;8.15;;;4.65;;
76155;SDS011;64906;51.290;7.348;2023-09-08T05:07:02;7.65;;;4.50;;
76155;SDS011;64906;51.290;7.348;2023-09-08T05:09:27;6.50;;;4.15;;
76155;SDS011;64906;51.290;7.348;2023-09-08T05:11:52;7.87;;;4.47;;
76155;SDS011;64906;51.290;7.348;2023-09-08T05:14:17;6.83;;;4.10;;
76155;SDS011;64906;51.290;7.348;2023-09-08T05:16:43;7.43;;;4.50;;
76155;SDS011;64906;51.290;7.348;2023-09-08T05:19:11;9.35;;;4.40;;
76155;SDS011;64906;51.290;7.348;2023-09-08T05:21:38;10.05;;;4.60;;
76155;SDS011;64906;51.290;7.348;2023-09-08T05:24:04;7.53;;;4.35;;
76155;SDS011;64906;51.290;7.348;2023-09-08T05:26:29;7.28;;;4.15;;
76155;SDS011;64906;51.290;7.348;2023-09-08T05:28:54;7.30;;;4.13;;
76155;SDS011;64906;51.290;7.348;2023-09-08T05:31:20;7.97;;;4.10;;
76155;SDS011;64906;51.290;7.348;2023-09-08T05:33:45;7.82;;;4.40;;
76155;SDS011;64906;51.290;7.348;2023-09-08T05:36:10;7.90;;;4.47;;
76155;SDS011;64906;51.290;7.348;2023-09-08T05:38:36;7.47;;;4.30;;
76155;SDS011;64906;51.290;7.348;2023-09-08T05:41:01;9.37;;;5.17;;
76155;SDS011;64906;51.290;7.348;2023-09-08T05:43:27;8.93;;;5.13;;
76155;SDS011;64906;51.290;7.348;2023-09-08T05:45:53;8.93;;;5.50;;
76155;SDS011;64906;51.290;7.348;2023-09-08T05:48:18;8.63;;;4.63;;
76155;SDS011;64906;51.290;7.348;2023-09-08T05:50:44;8.10;;;5.05;;
76155;SDS011;64906;51.290;7.348;2023-09-08T05:53:09;9.53;;;5.47;;
76155;SDS011;64906;51.290;7.348;2023-09-08T05:55:34;8.27;;;4.63;;
76155;SDS011;64906;51.290;7.348;2023-09-08T05:57:59;7.93;;;5.00;;
76155;SDS011;64906;51.290;7.348;2023-09-08T06:00:25;11.43;;;4.97;;
76155;SDS011;64906;51.290;7.348;2023-09-08T06:02:51;15.43;;;6.25;;
76155;SDS011;64906;51.290;7.348;2023-09-08T06:05:16;16.90;;;10.30;;
76155;SDS011;64906;51.290;7.348;2023-09-08T06:07:42;27.77;;;18.33;;
76155;SDS011;64906;51.290;7.348;2023-09-08T06:10:07;35.63;;;22.43;;
76155;SDS011;64906;51.290;7.348;2023-09-08T06:12:33;51.08;;;31.60;;
76155;SDS011;64906;51.290;7.348;2023-09-08T06:14:58;54.83;;;34.50;;
76155;SDS011;64906;51.290;7.348;2023-09-08T06:17:23;68.53;;;42.50;;
76155;SDS011;64906;51.290;7.348;2023-09-08T06:19:48;70.03;;;45.43;;
76155;SDS011;64906;51.290;7.348;2023-09-08T06:22:14;78.85;;;50.60;;
76155;SDS011;64906;51.290;7.348;2023-09-08T06:24:39;84.70;;;53.70;;
76155;SDS011;64906;51.290;7.348;2023-09-08T06:27:05;87.63;;;57.58;;
76155;SDS011;64906;51.290;7.348;2023-09-08T06:29:30;91.97;;;59.22;;
76155;SDS011;64906;51.290;7.348;2023-09-08T06:31:56;89.90;;;59.03;;
76155;SDS011;64906;51.290;7.348;2023-09-08T06:34:21;94.13;;;58.77;;
76155;SDS011;64906;51.290;7.348;2023-09-08T06:36:48;89.32;;;54.78;;
76155;SDS011;64906;51.290;7.348;2023-09-08T06:39:13;87.65;;;54.97;;
76155;SDS011;64906;51.290;7.348;2023-09-08T06:41:38;90.07;;;56.17;;
76155;SDS011;64906;51.290;7.348;2023-09-08T06:44:04;83.30;;;55.03;;
76155;SDS011;64906;51.290;7.348;2023-09-08T06:46:29;84.88;;;57.33;;
76155;SDS011;64906;51.290;7.348;2023-09-08T06:48:54;88.60;;;57.90;;
76155;SDS011;64906;51.290;7.348;2023-09-08T06:51:20;88.83;;;56.87;;
76155;SDS011;64906;51.290;7.348;2023-09-08T06:53:49;86.10;;;57.17;;
76155;SDS011;64906;51.290;7.348;2023-09-08T06:56:19;90.38;;;58.88;;
76155;SDS011;64906;51.290;7.348;2023-09-08T06:58:44;87.47;;;58.80;;
76155;SDS011;64906;51.290;7.348;2023-09-08T07:01:10;84.33;;;56.67;;
76155;SDS011;64906;51.290;7.348;2023-09-08T07:03:35;89.30;;;56.40;;
76155;SDS011;64906;51.290;7.348;2023-09-08T07:06:01;84.90;;;58.42;;
76155;SDS011;64906;51.290;7.348;2023-09-08T07:08:27;89.60;;;57.97;;
76155;SDS011;64906;51.290;7.348;2023-09-08T07:10:52;81.43;;;56.60;;
76155;SDS011;64906;51.290;7.348;2023-09-08T07:13:18;84.20;;;56.33;;
76155;SDS011;64906;51.290;7.348;2023-09-08T07:15:44;83.40;;;55.63;;
76155;SDS011;64906;51.290;7.348;2023-09-08T07:18:09;78.72;;;53.70;;
76155;SDS011;64906;51.290;7.348;2023-09-08T07:20:34;82.63;;;53.93;;
76155;SDS011;64906;51.290;7.348;2023-09-08T07:23:00;76.78;;;53.38;;
76155;SDS011;64906;51.290;7.348;2023-09-08T07:25:25;75.17;;;49.70;;
76155;SDS011;64906;51.290;7.348;2023-09-08T07:27:50;73.67;;;48.87;;
76155;SDS011;64906;51.290;7.348;2023-09-08T07:30:17;70.65;;;47.60;;
76155;SDS011;64906;51.290;7.348;2023-09-08T07:32:43;68.53;;;46.30;;
76155;SDS011;64906;51.290;7.348;2023-09-08T07:35:09;70.45;;;45.42;;
76155;SDS011;64906;51.290;7.348;2023-09-08T07:37:39;63.70;;;42.47;;
76155;SDS011;64906;51.290;7.348;2023-09-08T07:40:04;65.80;;;42.97;;
76155;SDS011;64906;51.290;7.348;2023-09-08T07:42:30;61.08;;;40.28;;
76155;SDS011;64906;51.290;7.348;2023-09-08T07:44:55;58.07;;;39.30;;
76155;SDS011;64906;51.290;7.348;2023-09-08T07:47:21;57.17;;;38.07;;
76155;SDS011;64906;51.290;7.348;2023-09-08T07:49:47;58.43;;;38.13;;
76155;SDS011;64906;51.290;7.348;2023-09-08T07:52:13;54.33;;;36.50;;
76155;SDS011;64906;51.290;7.348;2023-09-08T07:54:38;54.20;;;36.58;;
76155;SDS011;64906;51.290;7.348;2023-09-08T07:57:03;51.47;;;34.70;;
76155;SDS011;64906;51.290;7.348;2023-09-08T07:59:29;49.33;;;34.28;;
76155;SDS011;64906;51.290;7.348;2023-09-08T08:01:54;50.77;;;33.87;;
76155;SDS011;64906;51.290;7.348;2023-09-08T08:04:20;50.03;;;33.30;;
76155;SDS011;64906;51.290;7.348;2023-09-08T08:06:45;49.03;;;33.90;;
76155;SDS011;64906;51.290;7.348;2023-09-08T08:09:12;47.08;;;31.98;;
76155;SDS011;64906;51.290;7.348;2023-09-08T08:11:37;46.92;;;32.40;;
76155;SDS011;64906;51.290;7.348;2023-09-08T08:14:03;46.83;;;32.30;;
76155;SDS011;64906;51.290;7.348;2023-09-08T08:16:28;48.45;;;31.98;;
76155;SDS011;64906;51.290;7.348;2023-09-08T08:18:53;49.35;;;33.72;;
76155;SDS011;64906;51.290;7.348;2023-09-08T08:21:19;47.73;;;32.73;;
76155;SDS011;64906;51.290;7.348;2023-09-08T08:23:44;46.90;;;31.40;;
76155;SDS011;64906;51.290;7.348;2023-09-08T08:26:09;44.97;;;32.80;;
76155;SDS011;64906;51.290;7.348;2023-09-08T08:28:34;48.00;;;32.80;;
76155;SDS011;64906;51.290;7.348;2023-09-08T08:31:00;47.87;;;31.93;;
76155;SDS011;64906;51.290;7.348;2023-09-08T08:33:25;44.30;;;31.07;;
76155;SDS011;64906;51.290;7.348;2023-09-08T08:35:54;44.17;;;30.55;;
76155;SDS011;64906;51.290;7.348;2023-09-08T08:38:19;44.45;;;29.85;;
76155;SDS011;64906;51.290;7.348;2023-09-08T08:40:45;43.33;;;29.70;;
76155;SDS011;64906;51.290;7.348;2023-09-08T08:43:10;45.28;;;30.30;;
76155;SDS011;64906;51.290;7.348;2023-09-08T08:45:37;45.45;;;31.35;;
76155;SDS011;64906;51.290;7.348;2023-09-08T08:48:04;42.55;;;29.50;;
76155;SDS011;64906;51.290;7.348;2023-09-08T08:50:31;40.00;;;28.23;;
76155;SDS011;64906;51.290;7.348;2023-09-08T08:52:57;40.78;;;29.10;;
76155;SDS011;64906;51.290;7.348;2023-09-08T08:55:24;43.80;;;30.10;;
76155;SDS011;64906;51.290;7.348;2023-09-08T08:57:50;43.88;;;30.10;;
76155;SDS011;64906;51.290;7.348;2023-09-08T09:00:16;42.47;;;29.20;;
76155;SDS011;64906;51.290;7.348;2023-09-08T09:02:43;41.00;;;28.33;;
76155;SDS011;64906;51.290;7.348;2023-09-08T09:05:13;40.28;;;28.60;;
76155;SDS011;64906;51.290;7.348;2023-09-08T09:07:42;39.58;;;28.02;;
76155;SDS011;64906;51.290;7.348;2023-09-08T09:10:08;37.97;;;28.35;;
76155;SDS011;64906;51.290;7.348;2023-09-08T09:12:36;39.85;;;28.90;;
76155;SDS011;64906;51.290;7.348;2023-09-08T09:15:03;42.60;;;29.45;;
76155;SDS011;64906;51.290;7.348;2023-09-08T09:17:33;45.85;;;28.52;;
76155;SDS011;64906;51.290;7.348;2023-09-08T09:20:15;41.47;;;29.30;;
76155;SDS011;64906;51.290;7.348;2023-09-08T09:22:44;36.55;;;25.88;;
76155;SDS011;64906;51.290;7.348;2023-09-08T09:25:09;36.67;;;26.55;;
76155;SDS011;64906;51.290;7.348;2023-09-08T09:27:35;37.63;;;27.65;;
76155;SDS011;64906;51.290;7.348;2023-09-08T09:30:03;38.65;;;27.13;;
76155;SDS011;64906;51.290;7.348;2023-09-08T09:32:28;38.45;;;27.23;;
76155;SDS011;64906;51.290;7.348;2023-09-08T09:34:56;38.35;;;26.55;;
76155;SDS011;64906;51.290;7.348;2023-09-08T09:37:22;38.50;;;26.52;;
76155;SDS011;64906;51.290;7.348;2023-09-08T09:39:52;37.55;;;26.88;;
76155;SDS011;64906;51.290;7.348;2023-09-08T09:42:19;37.28;;;25.90;;
76155;SDS011;64906;51.290;7.348;2023-09-08T09:44:49;36.42;;;25.13;;
76155;SDS011;64906;51.290;7.348;2023-09-08T09:47:16;35.83;;;25.25;;
76155;SDS011;64906;51.290;7.348;2023-09-08T09:49:43;35.35;;;25.05;;
76155;SDS011;64906;51.290;7.348;2023-09-08T09:52:12;36.38;;;26.50;;
76155;SDS011;64906;51.290;7.348;2023-09-08T09:54:40;33.88;;;24.48;;
76155;SDS011;64906;51.290;7.348;2023-09-08T09:57:09;35.40;;;25.02;;
76155;SDS011;64906;51.290;7.348;2023-09-08T09:59:37;34.30;;;24.33;;
76155;SDS011;64906;51.290;7.348;2023-09-08T10:02:03;33.70;;;23.83;;
76155;SDS011;64906;51.290;7.348;2023-09-08T10:04:29;34.17;;;23.40;;
76155;SDS011;64906;51.290;7.348;2023-09-08T10:06:55;33.13;;;23.70;;
76155;SDS011;64906;51.290;7.348;2023-09-08T10:09:22;34.38;;;24.38;;
76155;SDS011;64906;51.290;7.348;2023-09-08T10:11:49;33.28;;;23.83;;
76155;SDS011;64906;51.290;7.348;2023-09-08T10:14:15;34.90;;;23.90;;
76155;SDS011;64906;51.290;7.348;2023-09-08T10:16:43;32.97;;;23.30;;
76155;SDS011;64906;51.290;7.348;2023-09-08T10:19:10;31.35;;;23.63;;
76155;SDS011;64906;51.290;7.348;2023-09-08T10:21:39;30.02;;;22.40;;
76155;SDS011;64906;51.290;7.348;2023-09-08T10:24:10;31.23;;;22.73;;
76155;SDS011;64906;51.290;7.348;2023-09-08T10:26:51;33.25;;;23.13;;
76155;SDS011;64906;51.290;7.348;2023-09-08T10:29:28;31.98;;;22.85;;
76155;SDS011;64906;51.290;7.348;2023-09-08T10:31:55;33.60;;;22.42;;
76155;SDS011;64906;51.290;7.348;2023-09-08T10:34:21;30.13;;;21.25;;
76155;SDS011;64906;51.290;7.348;2023-09-08T10:36:49;30.20;;;21.70;;
76155;SDS011;64906;51.290;7.348;2023-09-08T10:39:33;31.27;;;21.47;;
76155;SDS011;64906;51.290;7.348;2023-09-08T10:44:41;28.38;;;20.88;;
76155;SDS011;64906;51.290;7.348;2023-09-08T10:47:13;27.63;;;20.10;;
76155;SDS011;64906;51.290;7.348;2023-09-08T10:49:40;30.02;;;20.88;;
76155;SDS011;64906;51.290;7.348;2023-09-08T10:52:09;26.80;;;19.70;;
76155;SDS011;64906;51.290;7.348;2023-09-08T10:54:46;29.70;;;20.75;;
76155;SDS011;64906;51.290;7.348;2023-09-08T10:57:13;28.95;;;20.63;;
76155;SDS011;64906;51.290;7.348;2023-09-08T10:59:44;29.80;;;20.83;;
76155;SDS011;64906;51.290;7.348;2023-09-08T11:02:56;28.05;;;19.10;;
76155;SDS011;64906;51.290;7.348;2023-09-08T11:05:03;26.35;;;19.05;;
76155;SDS011;64906;51.290;7.348;2023-09-08T11:07:31;26.23;;;19.05;;
76155;SDS011;64906;51.290;7.348;2023-09-08T11:10:00;27.10;;;19.38;;
76155;SDS011;64906;51.290;7.348;2023-09-08T11:12:28;25.98;;;19.52;;
76155;SDS011;64906;51.290;7.348;2023-09-08T11:14:54;25.58;;;18.48;;
76155;SDS011;64906;51.290;7.348;2023-09-08T11:17:19;27.55;;;19.42;;
76155;SDS011;64906;51.290;7.348;2023-09-08T11:19:46;26.10;;;18.75;;
76155;SDS011;64906;51.290;7.348;2023-09-08T11:22:13;27.30;;;19.10;;
76155;SDS011;64906;51.290;7.348;2023-09-08T11:24:41;26.33;;;18.90;;
76155;SDS011;64906;51.290;7.348;2023-09-08T11:27:07;25.73;;;18.95;;
76155;SDS011;64906;51.290;7.348;2023-09-08T11:29:33;24.88;;;18.20;;
76155;SDS011;64906;51.290;7.348;2023-09-08T11:31:58;25.95;;;18.45;;
76155;SDS011;64906;51.290;7.348;2023-09-08T11:34:24;24.73;;;17.73;;
76155;SDS011;64906;51.290;7.348;2023-09-08T11:36:49;25.17;;;17.73;;
76155;SDS011;64906;51.290;7.348;2023-09-08T11:39:15;24.30;;;17.27;;
76155;SDS011;64906;51.290;7.348;2023-09-08T11:41:40;24.83;;;17.23;;
76155;SDS011;64906;51.290;7.348;2023-09-08T11:44:06;23.25;;;16.75;;
76155;SDS011;64906;51.290;7.348;2023-09-08T11:46:31;22.75;;;16.85;;
76155;SDS011;64906;51.290;7.348;2023-09-08T11:48:57;22.50;;;16.30;;
76155;SDS011;64906;51.290;7.348;2023-09-08T11:51:23;24.63;;;16.95;;
76155;SDS011;64906;51.290;7.348;2023-09-08T11:53:48;22.17;;;15.63;;
76155;SDS011;64906;51.290;7.348;2023-09-08T11:56:14;22.83;;;15.93;;
76155;SDS011;64906;51.290;7.348;2023-09-08T11:58:40;22.77;;;15.68;;
76155;SDS011;64906;51.290;7.348;2023-09-08T12:01:06;20.48;;;15.05;;
76155;SDS011;64906;51.290;7.348;2023-09-08T12:03:32;23.80;;;15.90;;
76155;SDS011;64906;51.290;7.348;2023-09-08T12:05:57;21.47;;;15.63;;
76155;SDS011;64906;51.290;7.348;2023-09-08T12:08:24;19.90;;;14.45;;
76155;SDS011;64906;51.290;7.348;2023-09-08T12:10:53;21.23;;;15.93;;
76155;SDS011;64906;51.290;7.348;2023-09-08T12:13:22;20.55;;;14.93;;
76155;SDS011;64906;51.290;7.348;2023-09-08T12:15:48;20.70;;;15.15;;
76155;SDS011;64906;51.290;7.348;2023-09-08T12:18:14;20.33;;;14.55;;
76155;SDS011;64906;51.290;7.348;2023-09-08T12:20:42;21.23;;;15.40;;
76155;SDS011;64906;51.290;7.348;2023-09-08T12:23:16;19.73;;;14.25;;
76155;SDS011;64906;51.290;7.348;2023-09-08T12:25:51;20.98;;;15.07;;
76155;SDS011;64906;51.290;7.348;2023-09-08T12:28:18;20.67;;;14.65;;
76155;SDS011;64906;51.290;7.348;2023-09-08T12:30:44;20.83;;;14.82;;
76155;SDS011;64906;51.290;7.348;2023-09-08T12:33:10;19.40;;;14.40;;
76155;SDS011;64906;51.290;7.348;2023-09-08T12:35:36;18.40;;;13.60;;
76155;SDS011;64906;51.290;7.348;2023-09-08T12:38:03;19.15;;;13.57;;
76155;SDS011;64906;51.290;7.348;2023-09-08T12:40:30;19.42;;;13.98;;
76155;SDS011;64906;51.290;7.348;2023-09-08T12:42:57;19.60;;;13.90;;
76155;SDS011;64906;51.290;7.348;2023-09-08T12:45:25;18.38;;;13.05;;
76155;SDS011;64906;51.290;7.348;2023-09-08T12:47:51;20.35;;;13.80;;
76155;SDS011;64906;51.290;7.348;2023-09-08T12:50:17;19.27;;;13.13;;
76155;SDS011;64906;51.290;7.348;2023-09-08T12:52:42;18.13;;;12.73;;
76155;SDS011;64906;51.290;7.348;2023-09-08T12:55:08;18.50;;;13.45;;
76155;SDS011;64906;51.290;7.348;2023-09-08T12:57:34;19.02;;;12.50;;
76155;SDS011;64906;51.290;7.348;2023-09-08T13:00:00;18.17;;;12.93;;
76155;SDS011;64906;51.290;7.348;2023-09-08T13:02:25;18.25;;;12.63;;
76155;SDS011;64906;51.290;7.348;2023-09-08T13:04:51;16.50;;;11.93;;
76155;SDS011;64906;51.290;7.348;2023-09-08T13:07:16;17.67;;;12.53;;
76155;SDS011;64906;51.290;7.348;2023-09-08T13:09:43;17.50;;;12.35;;
76155;SDS011;64906;51.290;7.348;2023-09-08T13:12:08;17.40;;;11.70;;
76155;SDS011;64906;51.290;7.348;2023-09-08T13:14:34;16.35;;;12.02;;
76155;SDS011;64906;51.290;7.348;2023-09-08T13:17:00;16.83;;;11.77;;
76155;SDS011;64906;51.290;7.348;2023-09-08T13:19:25;16.60;;;11.95;;
76155;SDS011;64906;51.290;7.348;2023-09-08T13:21:51;16.67;;;11.33;;
76155;SDS011;64906;51.290;7.348;2023-09-08T13:24:17;18.05;;;11.88;;
76155;SDS011;64906;51.290;7.348;2023-09-08T13:26:42;15.67;;;11.27;;
76155;SDS011;64906;51.290;7.348;2023-09-08T13:29:07;17.33;;;11.30;;
76155;SDS011;64906;51.290;7.348;2023-09-08T13:31:33;15.37;;;11.57;;
76155;SDS011;64906;51.290;7.348;2023-09-08T13:33:58;15.13;;;11.03;;
76155;SDS011;64906;51.290;7.348;2023-09-08T13:36:23;14.60;;;10.53;;
76155;SDS011;64906;51.290;7.348;2023-09-08T13:38:48;13.73;;;10.20;;
76155;SDS011;64906;51.290;7.348;2023-09-08T13:41:14;15.00;;;10.80;;
76155;SDS011;64906;51.290;7.348;2023-09-08T13:43:39;14.90;;;10.30;;
76155;SDS011;64906;51.290;7.348;2023-09-08T13:46:04;14.57;;;9.98;;
76155;SDS011;64906;51.290;7.348;2023-09-08T13:48:30;15.73;;;10.93;;
76155;SDS011;64906;51.290;7.348;2023-09-08T13:50:55;13.63;;;9.80;;
76155;SDS011;64906;51.290;7.348;2023-09-08T13:53:25;13.43;;;9.25;;
76155;SDS011;64906;51.290;7.348;2023-09-08T13:55:50;14.40;;;10.03;;
76155;SDS011;64906;51.290;7.348;2023-09-08T13:58:16;14.40;;;9.77;;
76155;SDS011;64906;51.290;7.348;2023-09-08T14:00:41;13.60;;;9.53;;
76155;SDS011;64906;51.290;7.348;2023-09-08T14:03:06;13.67;;;9.80;;
76155;SDS011;64906;51.290;7.348;2023-09-08T14:05:32;14.07;;;9.87;;
76155;SDS011;64906;51.290;7.348;2023-09-08T14:07:57;14.05;;;9.90;;
76155;SDS011;64906;51.290;7.348;2023-09-08T14:10:23;13.93;;;9.55;;
76155;SDS011;64906;51.290;7.348;2023-09-08T14:12:48;13.20;;;9.50;;
76155;SDS011;64906;51.290;7.348;2023-09-08T14:15:14;13.57;;;9.07;;
76155;SDS011;64906;51.290;7.348;2023-09-08T14:17:41;13.23;;;9.27;;
76155;SDS011;64906;51.290;7.348;2023-09-08T14:20:06;14.00;;;8.50;;
76155;SDS011;64906;51.290;7.348;2023-09-08T14:22:32;13.85;;;9.23;;
76155;SDS011;64906;51.290;7.348;2023-09-08T14:24:58;13.80;;;8.82;;
76155;SDS011;64906;51.290;7.348;2023-09-08T14:27:23;12.60;;;8.73;;
76155;SDS011;64906;51.290;7.348;2023-09-08T14:29:48;12.37;;;8.63;;
76155;SDS011;64906;51.290;7.348;2023-09-08T14:32:14;11.80;;;8.43;;
76155;SDS011;64906;51.290;7.348;2023-09-08T14:34:39;12.57;;;8.10;;